sensor_id;sensor_type;location;lat;lon;timestamp;P1;durP1;ratioP1;P2;durP2;ratioP2
53718;SDS011;39616;48.872;9.390;2022-07-23T00:02:06;4.20;;;3.45;;
53718;SDS011;39616;48.872;9.390;2022-07-23T00:04:37;6.03;;;2.85;;
53718;SDS011;39616;48.872;9.390;2022-07-23T00:07:07;3.85;;;2.95;;
53718;SDS011;39616;48.872;9.390;2022-07-23T00:09:38;3.45;;;2.92;;
53718;SDS011;39616;48.872;9.390;2022-07-23T00:12:08;2.75;;;2.53;;
53718;SDS011;39616;48.872;9.390;2022-07-23T00:14:38;3.22;;;2.92;;
53718;SDS011;39616;48.872;9.390;2022-07-23T00:17:09;5.95;;;3.10;;
53718;SDS011;39616;48.872;9.390;2022-07-23T00:19:39;4.90;;;3.00;;
53718;SDS011;39616;48.872;9.390;2022-07-23T00:22:09;4.43;;;2.45;;
53718;SDS011;39616;48.872;9.390;2022-07-23T00:24:40;3.30;;;2.88;;
53718;SDS011;39616;48.872;9.390;2022-07-23T00:27:10;4.68;;;3.35;;
53718;SDS011;39616;48.872;9.390;2022-07-23T00:29:40;5.13;;;3.03;;
53718;SDS011;39616;48.872;9.390;2022-07-23T00:32:11;4.32;;;2.83;;
53718;SDS011;39616;48.872;9.390;2022-07-23T00:34:41;3.30;;;2.75;;
53718;SDS011;39616;48.872;9.390;2022-07-23T00:37:11;3.67;;;2.42;;
53718;SDS011;39616;48.872;9.390;2022-07-23T00:39:42;7.50;;;2.28;;
53718;SDS011;39616;48.872;9.390;2022-07-23T00:42:12;7.45;;;2.30;;
53718;SDS011;39616;48.872;9.390;2022-07-23T00:44:42;7.13;;;2.90;;
53718;SDS011;39616;48.872;9.390;2022-07-23T00:47:13;5.18;;;2.50;;
53718;SDS011;39616;48.872;9.390;2022-07-23T00:49:43;2.33;;;2.10;;
53718;SDS011;39616;48.872;9.390;2022-07-23T00:52:14;3.13;;;2.08;;
53718;SDS011;39616;48.872;9.390;2022-07-23T00:54:44;1.77;;;1.65;;
53718;SDS011;39616;48.872;9.390;2022-07-23T00:57:15;3.25;;;2.50;;
53718;SDS011;39616;48.872;9.390;2022-07-23T00:59:45;5.15;;;2.00;;
53718;SDS011;39616;48.872;9.390;2022-07-23T01:02:16;2.92;;;2.50;;
53718;SDS011;39616;48.872;9.390;2022-07-23T01:04:46;2.13;;;1.95;;
53718;SDS011;39616;48.872;9.390;2022-07-23T01:07:16;3.53;;;2.28;;
53718;SDS011;39616;48.872;9.390;2022-07-23T01:09:48;4.93;;;2.05;;
53718;SDS011;39616;48.872;9.390;2022-07-23T01:12:21;2.78;;;2.10;;
53718;SDS011;39616;48.872;9.390;2022-07-23T01:14:55;2.90;;;1.98;;
53718;SDS011;39616;48.872;9.390;2022-07-23T01:17:26;3.85;;;2.00;;
53718;SDS011;39616;48.872;9.390;2022-07-23T01:19:57;3.05;;;1.98;;
53718;SDS011;39616;48.872;9.390;2022-07-23T01:22:28;2.40;;;2.20;;
53718;SDS011;39616;48.872;9.390;2022-07-23T01:24:59;3.13;;;2.25;;
53718;SDS011;39616;48.872;9.390;2022-07-23T01:27:29;3.47;;;1.90;;
53718;SDS011;39616;48.872;9.390;2022-07-23T01:30:00;3.53;;;2.05;;
53718;SDS011;39616;48.872;9.390;2022-07-23T01:32:31;2.45;;;2.25;;
53718;SDS011;39616;48.872;9.390;2022-07-23T01:35:02;4.18;;;2.10;;
53718;SDS011;39616;48.872;9.390;2022-07-23T01:37:33;3.05;;;2.22;;
53718;SDS011;39616;48.872;9.390;2022-07-23T01:40:04;2.22;;;2.03;;
53718;SDS011;39616;48.872;9.390;2022-07-23T01:42:35;2.97;;;2.00;;
53718;SDS011;39616;48.872;9.390;2022-07-23T01:45:06;2.92;;;1.80;;
53718;SDS011;39616;48.872;9.390;2022-07-23T01:47:39;1.75;;;1.58;;
53718;SDS011;39616;48.872;9.390;2022-07-23T01:50:09;3.30;;;2.17;;
53718;SDS011;39616;48.872;9.390;2022-07-23T01:52:40;2.75;;;2.22;;
53718;SDS011;39616;48.872;9.390;2022-07-23T01:55:11;3.80;;;1.90;;
53718;SDS011;39616;48.872;9.390;2022-07-23T01:57:41;3.40;;;1.67;;
53718;SDS011;39616;48.872;9.390;2022-07-23T02:00:11;2.50;;;1.90;;
53718;SDS011;39616;48.872;9.390;2022-07-23T02:02:42;3.72;;;2.10;;
53718;SDS011;39616;48.872;9.390;2022-07-23T02:05:12;2.40;;;2.20;;
53718;SDS011;39616;48.872;9.390;2022-07-23T02:07:43;2.08;;;1.92;;
53718;SDS011;39616;48.872;9.390;2022-07-23T02:10:13;2.17;;;1.98;;
53718;SDS011;39616;48.872;9.390;2022-07-23T02:12:43;3.38;;;2.15;;
53718;SDS011;39616;48.872;9.390;2022-07-23T02:15:14;4.00;;;2.47;;
53718;SDS011;39616;48.872;9.390;2022-07-23T02:17:44;2.60;;;1.90;;
53718;SDS011;39616;48.872;9.390;2022-07-23T02:20:14;3.08;;;2.30;;
53718;SDS011;39616;48.872;9.390;2022-07-23T02:22:45;5.35;;;2.60;;
53718;SDS011;39616;48.872;9.390;2022-07-23T02:25:15;2.97;;;1.85;;
53718;SDS011;39616;48.872;9.390;2022-07-23T02:27:46;3.15;;;1.77;;
53718;SDS011;39616;48.872;9.390;2022-07-23T02:30:16;2.28;;;2.08;;
53718;SDS011;39616;48.872;9.390;2022-07-23T02:32:46;4.07;;;2.45;;
53718;SDS011;39616;48.872;9.390;2022-07-23T02:35:17;3.63;;;2.22;;
53718;SDS011;39616;48.872;9.390;2022-07-23T02:37:47;4.28;;;2.22;;
53718;SDS011;39616;48.872;9.390;2022-07-23T02:40:18;2.05;;;1.95;;
53718;SDS011;39616;48.872;9.390;2022-07-23T02:42:48;3.55;;;2.45;;
53718;SDS011;39616;48.872;9.390;2022-07-23T02:45:18;3.03;;;1.65;;
53718;SDS011;39616;48.872;9.390;2022-07-23T02:47:49;2.33;;;2.13;;
53718;SDS011;39616;48.872;9.390;2022-07-23T02:50:19;2.83;;;2.30;;
53718;SDS011;39616;48.872;9.390;2022-07-23T02:52:49;4.32;;;2.15;;
53718;SDS011;39616;48.872;9.390;2022-07-23T02:55:20;3.03;;;2.20;;
53718;SDS011;39616;48.872;9.390;2022-07-23T02:57:50;2.28;;;2.08;;
53718;SDS011;39616;48.872;9.390;2022-07-23T03:00:20;2.42;;;2.22;;
53718;SDS011;39616;48.872;9.390;2022-07-23T03:02:50;3.35;;;2.33;;
53718;SDS011;39616;48.872;9.390;2022-07-23T03:05:21;2.15;;;1.95;;
53718;SDS011;39616;48.872;9.390;2022-07-23T03:07:51;3.25;;;1.90;;
53718;SDS011;39616;48.872;9.390;2022-07-23T03:10:21;2.70;;;2.10;;
53718;SDS011;39616;48.872;9.390;2022-07-23T03:12:52;2.50;;;2.13;;
53718;SDS011;39616;48.872;9.390;2022-07-23T03:15:22;4.57;;;2.17;;
53718;SDS011;39616;48.872;9.390;2022-07-23T03:17:52;2.20;;;2.00;;
53718;SDS011;39616;48.872;9.390;2022-07-23T03:20:23;2.40;;;2.20;;
53718;SDS011;39616;48.872;9.390;2022-07-23T03:22:53;2.75;;;2.10;;
53718;SDS011;39616;48.872;9.390;2022-07-23T03:25:23;2.65;;;2.45;;
53718;SDS011;39616;48.872;9.390;2022-07-23T03:27:54;3.45;;;2.42;;
53718;SDS011;39616;48.872;9.390;2022-07-23T03:30:24;3.78;;;2.53;;
53718;SDS011;39616;48.872;9.390;2022-07-23T03:32:54;4.18;;;2.50;;
53718;SDS011;39616;48.872;9.390;2022-07-23T03:35:25;4.57;;;2.47;;
53718;SDS011;39616;48.872;9.390;2022-07-23T03:37:55;3.28;;;2.28;;
53718;SDS011;39616;48.872;9.390;2022-07-23T03:40:25;4.70;;;3.10;;
53718;SDS011;39616;48.872;9.390;2022-07-23T03:42:55;5.10;;;3.00;;
53718;SDS011;39616;48.872;9.390;2022-07-23T03:45:26;3.60;;;2.58;;
53718;SDS011;39616;48.872;9.390;2022-07-23T03:47:57;3.08;;;2.78;;
53718;SDS011;39616;48.872;9.390;2022-07-23T03:50:27;3.55;;;2.40;;
53718;SDS011;39616;48.872;9.390;2022-07-23T03:52:57;2.90;;;2.45;;
53718;SDS011;39616;48.872;9.390;2022-07-23T03:55:28;2.65;;;2.20;;
53718;SDS011;39616;48.872;9.390;2022-07-23T03:57:58;3.15;;;2.42;;
53718;SDS011;39616;48.872;9.390;2022-07-23T04:00:29;3.33;;;2.92;;
53718;SDS011;39616;48.872;9.390;2022-07-23T04:02:59;4.65;;;2.85;;
53718;SDS011;39616;48.872;9.390;2022-07-23T04:05:29;2.90;;;2.45;;
53718;SDS011;39616;48.872;9.390;2022-07-23T04:08:00;3.45;;;2.72;;
53718;SDS011;39616;48.872;9.390;2022-07-23T04:10:30;3.20;;;2.53;;
53718;SDS011;39616;48.872;9.390;2022-07-23T04:13:00;3.72;;;2.30;;
53718;SDS011;39616;48.872;9.390;2022-07-23T04:15:31;3.60;;;2.50;;
53718;SDS011;39616;48.872;9.390;2022-07-23T04:18:01;4.30;;;2.85;;
53718;SDS011;39616;48.872;9.390;2022-07-23T04:20:31;3.50;;;2.70;;
53718;SDS011;39616;48.872;9.390;2022-07-23T04:23:01;3.58;;;2.80;;
53718;SDS011;39616;48.872;9.390;2022-07-23T04:25:32;3.63;;;2.75;;
53718;SDS011;39616;48.872;9.390;2022-07-23T04:28:02;2.88;;;2.63;;
53718;SDS011;39616;48.872;9.390;2022-07-23T04:30:33;4.57;;;2.97;;
53718;SDS011;39616;48.872;9.390;2022-07-23T04:33:03;4.13;;;3.10;;
53718;SDS011;39616;48.872;9.390;2022-07-23T04:35:36;4.60;;;2.95;;
53718;SDS011;39616;48.872;9.390;2022-07-23T04:38:07;3.83;;;2.78;;
53718;SDS011;39616;48.872;9.390;2022-07-23T04:40:37;3.85;;;2.95;;
53718;SDS011;39616;48.872;9.390;2022-07-23T04:43:07;3.40;;;3.08;;
53718;SDS011;39616;48.872;9.390;2022-07-23T04:45:38;4.68;;;3.10;;
53718;SDS011;39616;48.872;9.390;2022-07-23T04:48:08;3.28;;;2.97;;
53718;SDS011;39616;48.872;9.390;2022-07-23T04:50:38;4.22;;;3.05;;
53718;SDS011;39616;48.872;9.390;2022-07-23T04:53:09;5.03;;;3.10;;
53718;SDS011;39616;48.872;9.390;2022-07-23T04:55:39;3.85;;;2.63;;
53718;SDS011;39616;48.872;9.390;2022-07-23T04:58:09;3.65;;;3.35;;
53718;SDS011;39616;48.872;9.390;2022-07-23T05:00:40;5.40;;;2.42;;
53718;SDS011;39616;48.872;9.390;2022-07-23T05:03:10;5.07;;;3.20;;
53718;SDS011;39616;48.872;9.390;2022-07-23T05:05:41;3.40;;;3.10;;
53718;SDS011;39616;48.872;9.390;2022-07-23T05:08:11;5.95;;;2.65;;
53718;SDS011;39616;48.872;9.390;2022-07-23T05:10:41;2.90;;;2.67;;
53718;SDS011;39616;48.872;9.390;2022-07-23T05:13:13;5.15;;;2.80;;
53718;SDS011;39616;48.872;9.390;2022-07-23T05:15:45;3.08;;;2.83;;
53718;SDS011;39616;48.872;9.390;2022-07-23T05:18:15;3.08;;;2.78;;
53718;SDS011;39616;48.872;9.390;2022-07-23T05:20:46;3.55;;;2.78;;
53718;SDS011;39616;48.872;9.390;2022-07-23T05:23:16;4.15;;;3.08;;
53718;SDS011;39616;48.872;9.390;2022-07-23T05:25:47;3.22;;;2.90;;
53718;SDS011;39616;48.872;9.390;2022-07-23T05:28:17;3.17;;;2.83;;
53718;SDS011;39616;48.872;9.390;2022-07-23T05:30:47;3.38;;;3.00;;
53718;SDS011;39616;48.872;9.390;2022-07-23T05:33:18;3.28;;;2.25;;
53718;SDS011;39616;48.872;9.390;2022-07-23T05:35:49;5.10;;;2.80;;
53718;SDS011;39616;48.872;9.390;2022-07-23T05:38:19;2.70;;;2.50;;
53718;SDS011;39616;48.872;9.390;2022-07-23T05:40:50;3.80;;;3.40;;
53718;SDS011;39616;48.872;9.390;2022-07-23T05:43:21;2.90;;;2.70;;
53718;SDS011;39616;48.872;9.390;2022-07-23T05:45:51;3.53;;;3.20;;
53718;SDS011;39616;48.872;9.390;2022-07-23T05:48:22;3.83;;;3.50;;
53718;SDS011;39616;48.872;9.390;2022-07-23T05:50:52;6.55;;;3.10;;
53718;SDS011;39616;48.872;9.390;2022-07-23T05:53:22;3.28;;;2.97;;
53718;SDS011;39616;48.872;9.390;2022-07-23T05:55:53;4.13;;;3.08;;
53718;SDS011;39616;48.872;9.390;2022-07-23T05:58:23;6.28;;;2.95;;
53718;SDS011;39616;48.872;9.390;2022-07-23T06:00:53;3.88;;;3.10;;
53718;SDS011;39616;48.872;9.390;2022-07-23T06:03:24;6.15;;;3.30;;
53718;SDS011;39616;48.872;9.390;2022-07-23T06:05:54;5.30;;;3.47;;
53718;SDS011;39616;48.872;9.390;2022-07-23T06:08:25;3.90;;;2.47;;
53718;SDS011;39616;48.872;9.390;2022-07-23T06:10:55;3.33;;;3.00;;
53718;SDS011;39616;48.872;9.390;2022-07-23T06:13:25;4.22;;;2.67;;
53718;SDS011;39616;48.872;9.390;2022-07-23T06:15:56;3.47;;;2.80;;
53718;SDS011;39616;48.872;9.390;2022-07-23T06:18:26;3.40;;;3.08;;
53718;SDS011;39616;48.872;9.390;2022-07-23T06:20:56;6.30;;;3.45;;
53718;SDS011;39616;48.872;9.390;2022-07-23T06:23:27;5.93;;;3.13;;
53718;SDS011;39616;48.872;9.390;2022-07-23T06:25:57;5.60;;;3.10;;
53718;SDS011;39616;48.872;9.390;2022-07-23T06:28:27;4.10;;;3.50;;
53718;SDS011;39616;48.872;9.390;2022-07-23T06:30:58;5.00;;;3.10;;
53718;SDS011;39616;48.872;9.390;2022-07-23T06:33:28;5.25;;;3.38;;
53718;SDS011;39616;48.872;9.390;2022-07-23T06:35:58;4.65;;;3.33;;
53718;SDS011;39616;48.872;9.390;2022-07-23T06:38:29;5.95;;;3.80;;
53718;SDS011;39616;48.872;9.390;2022-07-23T06:40:59;4.28;;;3.80;;
53718;SDS011;39616;48.872;9.390;2022-07-23T06:43:30;4.25;;;3.47;;
53718;SDS011;39616;48.872;9.390;2022-07-23T06:46:01;6.10;;;3.83;;
53718;SDS011;39616;48.872;9.390;2022-07-23T06:48:31;4.15;;;3.72;;
53718;SDS011;39616;48.872;9.390;2022-07-23T06:51:02;4.97;;;4.25;;
53718;SDS011;39616;48.872;9.390;2022-07-23T06:53:33;6.22;;;4.10;;
53718;SDS011;39616;48.872;9.390;2022-07-23T06:56:03;6.85;;;3.63;;
53718;SDS011;39616;48.872;9.390;2022-07-23T06:58:34;4.97;;;4.30;;
53718;SDS011;39616;48.872;9.390;2022-07-23T07:01:04;4.40;;;4.00;;
53718;SDS011;39616;48.872;9.390;2022-07-23T07:03:34;8.90;;;4.93;;
53718;SDS011;39616;48.872;9.390;2022-07-23T07:06:05;9.27;;;4.32;;
53718;SDS011;39616;48.872;9.390;2022-07-23T07:08:35;4.78;;;4.32;;
53718;SDS011;39616;48.872;9.390;2022-07-23T07:11:06;6.95;;;4.40;;
53718;SDS011;39616;48.872;9.390;2022-07-23T07:13:37;7.78;;;5.30;;
53718;SDS011;39616;48.872;9.390;2022-07-23T07:16:08;6.80;;;4.63;;
53718;SDS011;39616;48.872;9.390;2022-07-23T07:18:38;7.18;;;5.07;;
53718;SDS011;39616;48.872;9.390;2022-07-23T07:21:08;9.98;;;4.78;;
53718;SDS011;39616;48.872;9.390;2022-07-23T07:23:39;7.80;;;5.97;;
53718;SDS011;39616;48.872;9.390;2022-07-23T07:26:09;8.73;;;5.72;;
53718;SDS011;39616;48.872;9.390;2022-07-23T07:28:40;7.35;;;4.95;;
53718;SDS011;39616;48.872;9.390;2022-07-23T07:31:10;15.80;;;5.78;;
53718;SDS011;39616;48.872;9.390;2022-07-23T07:33:40;8.88;;;5.43;;
53718;SDS011;39616;48.872;9.390;2022-07-23T07:36:11;8.00;;;5.50;;
53718;SDS011;39616;48.872;9.390;2022-07-23T07:38:42;6.10;;;5.50;;
53718;SDS011;39616;48.872;9.390;2022-07-23T07:41:12;7.72;;;5.60;;
53718;SDS011;39616;48.872;9.390;2022-07-23T07:43:42;9.82;;;6.72;;
53718;SDS011;39616;48.872;9.390;2022-07-23T07:46:13;7.70;;;5.68;;
53718;SDS011;39616;48.872;9.390;2022-07-23T07:48:43;7.10;;;5.50;;
53718;SDS011;39616;48.872;9.390;2022-07-23T07:51:13;9.07;;;5.95;;
53718;SDS011;39616;48.872;9.390;2022-07-23T07:53:44;8.05;;;6.25;;
53718;SDS011;39616;48.872;9.390;2022-07-23T07:56:14;7.22;;;6.53;;
53718;SDS011;39616;48.872;9.390;2022-07-23T07:58:44;7.03;;;5.78;;
53718;SDS011;39616;48.872;9.390;2022-07-23T08:01:15;11.38;;;5.85;;
53718;SDS011;39616;48.872;9.390;2022-07-23T08:03:46;7.32;;;5.80;;
53718;SDS011;39616;48.872;9.390;2022-07-23T08:06:16;11.48;;;5.85;;
53718;SDS011;39616;48.872;9.390;2022-07-23T08:08:46;7.03;;;5.10;;
53718;SDS011;39616;48.872;9.390;2022-07-23T08:11:17;5.30;;;4.25;;
53718;SDS011;39616;48.872;9.390;2022-07-23T08:13:47;5.72;;;4.80;;
53718;SDS011;39616;48.872;9.390;2022-07-23T08:16:18;6.45;;;3.83;;
53718;SDS011;39616;48.872;9.390;2022-07-23T08:18:48;6.28;;;5.10;;
53718;SDS011;39616;48.872;9.390;2022-07-23T08:21:19;6.70;;;4.70;;
53718;SDS011;39616;48.872;9.390;2022-07-23T08:23:49;5.97;;;4.63;;
53718;SDS011;39616;48.872;9.390;2022-07-23T08:26:19;5.95;;;4.70;;
53718;SDS011;39616;48.872;9.390;2022-07-23T08:28:50;7.13;;;5.00;;
53718;SDS011;39616;48.872;9.390;2022-07-23T08:31:20;6.10;;;5.10;;
53718;SDS011;39616;48.872;9.390;2022-07-23T08:33:50;5.35;;;4.68;;
53718;SDS011;39616;48.872;9.390;2022-07-23T08:36:22;7.30;;;4.47;;
53718;SDS011;39616;48.872;9.390;2022-07-23T08:38:55;5.00;;;3.97;;
53718;SDS011;39616;48.872;9.390;2022-07-23T08:41:25;4.38;;;3.70;;
53718;SDS011;39616;48.872;9.390;2022-07-23T08:43:56;5.22;;;4.38;;
53718;SDS011;39616;48.872;9.390;2022-07-23T08:46:27;4.55;;;4.15;;
53718;SDS011;39616;48.872;9.390;2022-07-23T08:48:58;5.03;;;4.20;;
53718;SDS011;39616;48.872;9.390;2022-07-23T08:51:28;8.60;;;5.22;;
53718;SDS011;39616;48.872;9.390;2022-07-23T08:53:59;5.28;;;3.95;;
53718;SDS011;39616;48.872;9.390;2022-07-23T08:56:30;6.18;;;4.25;;
53718;SDS011;39616;48.872;9.390;2022-07-23T08:59:00;7.50;;;4.18;;
53718;SDS011;39616;48.872;9.390;2022-07-23T09:01:31;6.38;;;4.38;;
53718;SDS011;39616;48.872;9.390;2022-07-23T09:04:01;4.03;;;3.67;;
53718;SDS011;39616;48.872;9.390;2022-07-23T09:06:31;5.72;;;4.20;;
53718;SDS011;39616;48.872;9.390;2022-07-23T09:09:15;4.28;;;3.50;;
53718;SDS011;39616;48.872;9.390;2022-07-23T09:11:47;5.80;;;3.92;;
53718;SDS011;39616;48.872;9.390;2022-07-23T09:14:41;4.95;;;3.55;;
53718;SDS011;39616;48.872;9.390;2022-07-23T09:17:14;6.10;;;3.85;;
53718;SDS011;39616;48.872;9.390;2022-07-23T09:19:46;3.55;;;3.25;;
53718;SDS011;39616;48.872;9.390;2022-07-23T09:22:18;4.50;;;3.47;;
53718;SDS011;39616;48.872;9.390;2022-07-23T09:27:46;3.47;;;3.17;;
53718;SDS011;39616;48.872;9.390;2022-07-23T09:30:23;3.55;;;3.25;;
53718;SDS011;39616;48.872;9.390;2022-07-23T09:33:03;3.22;;;2.92;;
53718;SDS011;39616;48.872;9.390;2022-07-23T09:35:51;3.42;;;3.13;;
53718;SDS011;39616;48.872;9.390;2022-07-23T09:38:23;4.13;;;3.70;;
53718;SDS011;39616;48.872;9.390;2022-07-23T09:43:37;5.65;;;2.88;;
53718;SDS011;39616;48.872;9.390;2022-07-23T09:46:21;3.45;;;2.83;;
53718;SDS011;39616;48.872;9.390;2022-07-23T09:48:56;3.95;;;3.40;;
53718;SDS011;39616;48.872;9.390;2022-07-23T09:51:26;3.00;;;2.78;;
53718;SDS011;39616;48.872;9.390;2022-07-23T09:54:03;2.90;;;2.60;;
53718;SDS011;39616;48.872;9.390;2022-07-23T09:56:34;3.53;;;2.83;;
53718;SDS011;39616;48.872;9.390;2022-07-23T09:59:06;3.50;;;3.17;;
53718;SDS011;39616;48.872;9.390;2022-07-23T10:01:41;3.70;;;2.67;;
53718;SDS011;39616;48.872;9.390;2022-07-23T10:04:11;2.75;;;2.55;;
53718;SDS011;39616;48.872;9.390;2022-07-23T10:06:42;3.80;;;2.70;;
53718;SDS011;39616;48.872;9.390;2022-07-23T10:09:14;3.28;;;2.53;;
53718;SDS011;39616;48.872;9.390;2022-07-23T10:11:47;3.40;;;2.50;;
53718;SDS011;39616;48.872;9.390;2022-07-23T10:14:18;3.58;;;3.28;;
53718;SDS011;39616;48.872;9.390;2022-07-23T10:16:49;4.65;;;2.78;;
53718;SDS011;39616;48.872;9.390;2022-07-23T10:19:19;3.58;;;2.58;;
53718;SDS011;39616;48.872;9.390;2022-07-23T10:21:52;3.58;;;3.05;;
53718;SDS011;39616;48.872;9.390;2022-07-23T10:24:31;3.28;;;2.78;;
53718;SDS011;39616;48.872;9.390;2022-07-23T10:30:11;3.70;;;2.97;;
53718;SDS011;39616;48.872;9.390;2022-07-23T10:41:07;2.90;;;2.65;;
53718;SDS011;39616;48.872;9.390;2022-07-23T10:43:37;4.38;;;2.78;;
53718;SDS011;39616;48.872;9.390;2022-07-23T10:46:20;3.58;;;3.08;;
53718;SDS011;39616;48.872;9.390;2022-07-23T10:52:16;3.47;;;2.70;;
53718;SDS011;39616;48.872;9.390;2022-07-23T10:57:31;3.70;;;3.40;;
53718;SDS011;39616;48.872;9.390;2022-07-23T11:00:25;3.60;;;3.20;;
53718;SDS011;39616;48.872;9.390;2022-07-23T11:03:00;3.88;;;3.40;;
53718;SDS011;39616;48.872;9.390;2022-07-23T11:05:45;3.28;;;2.67;;
53718;SDS011;39616;48.872;9.390;2022-07-23T11:08:17;3.83;;;2.85;;
53718;SDS011;39616;48.872;9.390;2022-07-23T11:10:52;2.88;;;2.63;;
53718;SDS011;39616;48.872;9.390;2022-07-23T11:24:09;3.38;;;3.08;;
53718;SDS011;39616;48.872;9.390;2022-07-23T11:26:52;4.85;;;3.00;;
53718;SDS011;39616;48.872;9.390;2022-07-23T11:31:56;5.72;;;3.15;;
53718;SDS011;39616;48.872;9.390;2022-07-23T11:34:39;3.78;;;2.78;;
53718;SDS011;39616;48.872;9.390;2022-07-23T11:37:11;3.08;;;2.85;;
53718;SDS011;39616;48.872;9.390;2022-07-23T11:39:57;2.90;;;2.70;;
53718;SDS011;39616;48.872;9.390;2022-07-23T11:42:28;3.45;;;3.15;;
53718;SDS011;39616;48.872;9.390;2022-07-23T11:44:58;3.50;;;3.15;;
53718;SDS011;39616;48.872;9.390;2022-07-23T11:47:29;4.15;;;3.75;;
53718;SDS011;39616;48.872;9.390;2022-07-23T11:50:00;3.72;;;3.00;;
53718;SDS011;39616;48.872;9.390;2022-07-23T11:52:33;4.90;;;2.92;;
53718;SDS011;39616;48.872;9.390;2022-07-23T11:55:05;2.90;;;2.70;;
53718;SDS011;39616;48.872;9.390;2022-07-23T11:57:39;4.72;;;2.63;;
53718;SDS011;39616;48.872;9.390;2022-07-23T12:00:11;3.75;;;2.90;;
53718;SDS011;39616;48.872;9.390;2022-07-23T12:02:51;3.67;;;3.10;;
53718;SDS011;39616;48.872;9.390;2022-07-23T12:05:24;3.25;;;2.83;;
53718;SDS011;39616;48.872;9.390;2022-07-23T12:07:57;4.70;;;3.28;;
53718;SDS011;39616;48.872;9.390;2022-07-23T12:10:29;3.58;;;3.28;;
53718;SDS011;39616;48.872;9.390;2022-07-23T12:15:43;4.57;;;3.25;;
53718;SDS011;39616;48.872;9.390;2022-07-23T12:18:16;5.03;;;3.30;;
53718;SDS011;39616;48.872;9.390;2022-07-23T12:20:50;2.70;;;2.47;;
53718;SDS011;39616;48.872;9.390;2022-07-23T12:23:24;3.90;;;2.85;;
53718;SDS011;39616;48.872;9.390;2022-07-23T12:26:00;2.47;;;2.22;;
53718;SDS011;39616;48.872;9.390;2022-07-23T12:28:32;6.32;;;2.90;;
53718;SDS011;39616;48.872;9.390;2022-07-23T12:31:03;3.35;;;3.05;;
53718;SDS011;39616;48.872;9.390;2022-07-23T12:33:35;4.68;;;3.38;;
53718;SDS011;39616;48.872;9.390;2022-07-23T12:36:08;3.50;;;3.20;;
53718;SDS011;39616;48.872;9.390;2022-07-23T12:38:42;3.72;;;3.42;;
53718;SDS011;39616;48.872;9.390;2022-07-23T12:41:19;4.20;;;3.80;;
53718;SDS011;39616;48.872;9.390;2022-07-23T12:43:49;3.50;;;3.17;;
53718;SDS011;39616;48.872;9.390;2022-07-23T12:46:20;3.63;;;3.30;;
53718;SDS011;39616;48.872;9.390;2022-07-23T12:48:52;3.58;;;3.22;;
53718;SDS011;39616;48.872;9.390;2022-07-23T12:51:26;3.40;;;3.10;;
53718;SDS011;39616;48.872;9.390;2022-07-23T12:56:38;5.07;;;3.30;;
53718;SDS011;39616;48.872;9.390;2022-07-23T12:59:11;3.78;;;3.47;;
53718;SDS011;39616;48.872;9.390;2022-07-23T13:04:25;4.13;;;3.70;;
53718;SDS011;39616;48.872;9.390;2022-07-23T13:06:59;3.72;;;3.42;;
53718;SDS011;39616;48.872;9.390;2022-07-23T13:09:34;3.72;;;3.42;;
53718;SDS011;39616;48.872;9.390;2022-07-23T13:12:04;4.60;;;3.28;;
53718;SDS011;39616;48.872;9.390;2022-07-23T13:14:34;3.83;;;3.53;;
53718;SDS011;39616;48.872;9.390;2022-07-23T13:17:05;4.88;;;3.67;;
53718;SDS011;39616;48.872;9.390;2022-07-23T13:19:36;4.05;;;3.65;;
53718;SDS011;39616;48.872;9.390;2022-07-23T13:22:06;4.57;;;4.18;;
53718;SDS011;39616;48.872;9.390;2022-07-23T13:24:36;5.32;;;3.78;;
53718;SDS011;39616;48.872;9.390;2022-07-23T13:27:07;4.45;;;3.50;;
53718;SDS011;39616;48.872;9.390;2022-07-23T13:29:38;4.45;;;3.80;;
53718;SDS011;39616;48.872;9.390;2022-07-23T13:32:08;4.07;;;3.67;;
53718;SDS011;39616;48.872;9.390;2022-07-23T13:34:38;4.03;;;3.72;;
53718;SDS011;39616;48.872;9.390;2022-07-23T13:37:09;4.97;;;3.53;;
53718;SDS011;39616;48.872;9.390;2022-07-23T13:39:40;4.28;;;3.58;;
53718;SDS011;39616;48.872;9.390;2022-07-23T13:42:10;3.88;;;3.33;;
53718;SDS011;39616;48.872;9.390;2022-07-23T13:44:40;4.10;;;3.70;;
53718;SDS011;39616;48.872;9.390;2022-07-23T13:47:10;6.05;;;4.18;;
53718;SDS011;39616;48.872;9.390;2022-07-23T13:49:41;4.20;;;3.80;;
53718;SDS011;39616;48.872;9.390;2022-07-23T13:52:11;4.88;;;4.47;;
53718;SDS011;39616;48.872;9.390;2022-07-23T13:54:42;5.30;;;4.32;;
53718;SDS011;39616;48.872;9.390;2022-07-23T13:57:12;6.10;;;4.70;;
53718;SDS011;39616;48.872;9.390;2022-07-23T13:59:42;5.03;;;4.32;;
53718;SDS011;39616;48.872;9.390;2022-07-23T14:02:14;4.95;;;4.40;;
53718;SDS011;39616;48.872;9.390;2022-07-23T14:04:47;5.20;;;4.35;;
53718;SDS011;39616;48.872;9.390;2022-07-23T14:07:18;5.28;;;4.78;;
53718;SDS011;39616;48.872;9.390;2022-07-23T14:09:49;4.97;;;4.57;;
53718;SDS011;39616;48.872;9.390;2022-07-23T14:12:20;4.72;;;4.18;;
53718;SDS011;39616;48.872;9.390;2022-07-23T14:14:50;6.18;;;4.75;;
53718;SDS011;39616;48.872;9.390;2022-07-23T14:17:21;7.22;;;4.53;;
53718;SDS011;39616;48.872;9.390;2022-07-23T14:19:51;5.63;;;4.72;;
53718;SDS011;39616;48.872;9.390;2022-07-23T14:22:22;6.60;;;5.22;;
53718;SDS011;39616;48.872;9.390;2022-07-23T14:24:52;5.07;;;4.57;;
53718;SDS011;39616;48.872;9.390;2022-07-23T14:27:23;4.85;;;4.45;;
53718;SDS011;39616;48.872;9.390;2022-07-23T14:29:54;5.28;;;4.88;;
53718;SDS011;39616;48.872;9.390;2022-07-23T14:32:24;6.10;;;5.03;;
53718;SDS011;39616;48.872;9.390;2022-07-23T14:34:55;5.05;;;4.55;;
53718;SDS011;39616;48.872;9.390;2022-07-23T14:37:26;4.25;;;3.85;;
53718;SDS011;39616;48.872;9.390;2022-07-23T14:39:56;5.35;;;4.30;;
53718;SDS011;39616;48.872;9.390;2022-07-23T14:42:27;4.53;;;4.13;;
53718;SDS011;39616;48.872;9.390;2022-07-23T14:44:57;5.60;;;3.80;;
53718;SDS011;39616;48.872;9.390;2022-07-23T14:47:28;6.05;;;4.20;;
53718;SDS011;39616;48.872;9.390;2022-07-23T14:49:58;6.45;;;4.10;;
53718;SDS011;39616;48.872;9.390;2022-07-23T14:52:28;4.15;;;3.80;;
53718;SDS011;39616;48.872;9.390;2022-07-23T14:54:59;4.95;;;4.45;;
53718;SDS011;39616;48.872;9.390;2022-07-23T14:57:29;4.85;;;4.10;;
53718;SDS011;39616;48.872;9.390;2022-07-23T14:59:59;5.47;;;3.95;;
53718;SDS011;39616;48.872;9.390;2022-07-23T15:02:30;6.00;;;4.20;;
53718;SDS011;39616;48.872;9.390;2022-07-23T15:05:00;4.55;;;3.72;;
53718;SDS011;39616;48.872;9.390;2022-07-23T15:07:33;5.90;;;4.80;;
53718;SDS011;39616;48.872;9.390;2022-07-23T15:10:03;4.40;;;3.85;;
53718;SDS011;39616;48.872;9.390;2022-07-23T15:12:34;4.88;;;4.38;;
53718;SDS011;39616;48.872;9.390;2022-07-23T15:15:05;7.18;;;4.60;;
53718;SDS011;39616;48.872;9.390;2022-07-23T15:17:35;6.40;;;4.50;;
53718;SDS011;39616;48.872;9.390;2022-07-23T15:20:06;4.75;;;4.28;;
53718;SDS011;39616;48.872;9.390;2022-07-23T15:22:37;4.90;;;4.40;;
53718;SDS011;39616;48.872;9.390;2022-07-23T15:25:07;4.72;;;4.32;;
53718;SDS011;39616;48.872;9.390;2022-07-23T15:27:37;6.30;;;4.70;;
53718;SDS011;39616;48.872;9.390;2022-07-23T15:30:08;5.53;;;4.90;;
53718;SDS011;39616;48.872;9.390;2022-07-23T15:32:38;6.40;;;5.00;;
53718;SDS011;39616;48.872;9.390;2022-07-23T15:35:09;6.38;;;5.28;;
53718;SDS011;39616;48.872;9.390;2022-07-23T15:37:39;5.47;;;4.80;;
53718;SDS011;39616;48.872;9.390;2022-07-23T15:40:10;5.72;;;4.15;;
53718;SDS011;39616;48.872;9.390;2022-07-23T15:42:41;6.43;;;5.63;;
53718;SDS011;39616;48.872;9.390;2022-07-23T15:45:12;6.35;;;5.22;;
53718;SDS011;39616;48.872;9.390;2022-07-23T15:47:42;5.60;;;5.05;;
53718;SDS011;39616;48.872;9.390;2022-07-23T15:50:13;6.18;;;4.78;;
53718;SDS011;39616;48.872;9.390;2022-07-23T15:52:43;5.88;;;5.28;;
53718;SDS011;39616;48.872;9.390;2022-07-23T15:55:13;5.85;;;5.35;;
53718;SDS011;39616;48.872;9.390;2022-07-23T15:57:44;7.70;;;5.07;;